Main page
METAR-TAF:

METAR-TAF

Airports :

Chumphon Airport

Chumphon, Thailand

latitude: 10-42-40N, longitude: 099-21-42E, elevation: 5 m

Current weather observation

The report was made 8 hours and 30 minutes ago, at 11:00 UTC
Wind 2 kt from variable directions
Temperature 28°C
Humidity 84%
Pressure 1007 hPa
Visibility 10 km or more
Few clouds at a height of 2000 ft

METAR: VTSE 011100Z VRB02KT 9999 FEW020 28/25 Q1007 NOSIG

Time: 02:30 (19:30 UTC)

Forecast

The report was made 2 hours and 30 minutes ago, at 17:00 UTC
Forecast valid from 01 at 18 UTC to 02 at 18 UTC
Wind kt from the North
Visibility 10 km or more
Few clouds at a height of 2000 ft
Temporary
from 01 at 20 UTC to 02 at 03 UTC
Visibility: 4000 m
rain
Becoming
from 02 at 03 UTC to 02 at 05 UTC
Wind 8 kt from the East
Becoming
from 02 at 13 UTC to 02 at 15 UTC
Wind kt from the North

TAF: VTSE 011700Z 0118/0218 00000KT 9999 FEW020 TEMPO 0120/0203 4000 RA BECMG 0203/0205 08008KT BECMG 0213/0215 00000KT

Weather observations and forecasts of more than 4000 airports (METAR and TAF reports).

The available stations are represented by yellow and red dots on the map.

Hover mouse over dot to see the name of the station.

Then click to see weather observations and forecasts.

To change the map : click on the green buttons with a black cross to zoom in, on the green button with a dash to zoom out, or on the green arrows for adjacent maps.


METAR-TAF: